Latest Weather Observations for Mount Keith

IDW60801

Issued at 1:35 am WST Tuesday 21 October 2014 (issued every 30 minutes, with the page automatically refreshed every 10 minutes)

About weather observations | Map of weather stations | Latest weather observations for WA | Other Formats
Station Details ID: 512019 Name: MOUNT KEITH Lat: -27.29 Lon: 120.55 Height: 542.33 m
Data from the previous 72 hours. | See also: Recent months for locations in Western Australia
Date/Time
WST
Temp
°C
App
Temp
°C
Dew
Point
Rel
Hum
%
Delta-T
°C
Wind Press
QNH
hPa
Press
MSL
hPa
Rain
since 9 am
mm
Dir
 
Spd
km/h
Gust
km/h
Spd
kts
Gust
kts
21/01:30am 17.9 14.0 7.0 49 5.6 S 17 20 9 11 1018.4 1015.9 0.0
21/01:00am 17.9 14.5 7.6 51 5.3 S 15 19 8 10 1018.6 1016.1 0.0
21/12:30am 18.0 15.1 8.0 52 5.2 S 13 17 7 9 1018.8 1016.3 0.0
21/12:00am 18.4 15.4 7.8 50 5.5 S 13 17 7 9 1019.1 1016.5 0.0
 
Date/Time
WST
Temp
°C
App
Temp
°C
Dew
Point
Rel
Hum
%
Delta-T
°C
Wind Press
QNH
hPa
Press
MSL
hPa
Rain
since 9 am
mm
Dir
 
Spd
km/h
Gust
km/h
Spd
kts
Gust
kts
20/11:30pm 18.6 16.0 7.7 49 5.7 S 11 13 6 7 1019.2 1016.6 0.0
20/11:00pm 19.6 16.1 7.4 45 6.4 SSW 15 20 8 11 1019.3 1016.7 0.0
20/10:30pm 19.8 16.8 7.9 46 6.3 SSW 13 15 7 8 1019.4 1016.8 0.0
20/10:00pm 20.4 17.9 8.1 45 6.5 SW 11 13 6 7 1019.6 1017.1 0.0
20/09:30pm 20.5 17.2 8.2 45 6.6 WSW 15 17 8 9 1019.6 1017.1 0.0
20/09:00pm 20.7 17.7 9.3 48 6.2 WSW 15 20 8 11 1019.4 1016.8 0.0
20/08:30pm 20.1 19.3 11.6 58 4.8 WNW 7 9 4 5 1019.0 1016.4 0.0
20/08:00pm 20.8 19.4 9.7 49 6.1 NW 7 9 4 5 1018.6 1016.1 0.0
20/07:30pm 20.9 19.7 10.4 51 5.9 NW 7 9 4 5 1018.2 1015.7 0.0
20/07:00pm 22.8 21.0 7.0 36 8.4 WNW 6 9 3 5 1017.9 1015.4 0.0
20/06:30pm 24.0 21.3 5.4 30 9.6 WNW 9 11 5 6 1017.5 1014.9 0.0
20/06:00pm 25.9 21.6 3.2 23 11.4 W 15 20 8 11 1017.2 1014.6 0.0
20/05:30pm 26.9 21.9 1.3 19 12.6 W 17 26 9 14 1016.7 1014.2 0.0
20/05:00pm 27.4 22.7 3.2 21 12.3 WNW 17 24 9 13 1016.4 1013.9 0.0
20/04:30pm 27.7 23.3 2.7 20 12.6 W 15 24 8 13 1016.2 1013.7 0.0
20/04:00pm 27.5 23.3 3.9 22 12.2 WNW 15 26 8 14 1016.0 1013.4 0.0
20/03:30pm 27.6 23.3 5.2 24 11.8 W 17 26 9 14 1015.9 1013.3 0.0
20/03:00pm 27.2 22.0 3.7 22 12.0 SW 20 24 11 13 1015.9 1013.3 0.0
20/02:30pm 26.6 22.4 5.5 26 11.1 NW 17 20 9 11 1016.0 1013.4 0.0
20/02:00pm 26.9 21.9 4.6 24 11.6 W 20 35 11 19 1016.1 1013.5 0.0
20/01:30pm 26.1 21.1 4.6 25 11.1 NW 20 28 11 15 1016.5 1014.0 0.0
20/01:00pm 25.7 20.5 7.3 31 10.0 W 24 35 13 19 1016.8 1014.3 0.0
20/12:30pm 25.1 21.1 4.8 27 10.5 W 15 26 8 14 1017.1 1014.5 0.0
20/12:00pm 24.8 20.3 6.1 30 9.9 NW 19 24 10 13 1017.4 1014.8 0.0
20/11:30am 23.8 20.3 7.0 34 9.0 SW 15 24 8 13 1017.6 1015.0 0.0
20/11:00am 23.5 20.5 5.9 32 9.2 W 11 20 6 11 1017.9 1015.4 0.0
20/10:30am 23.1 20.7 8.8 40 7.8 N 11 17 6 9 1018.1 1015.6 0.0
20/10:00am 22.6 20.6 7.2 37 8.2 N 7 11 4 6 1018.4 1015.9 0.0
20/09:30am 21.6 19.9 8.5 43 7.1 N 7 11 4 6 1018.6 1016.1 0.0
20/09:00am 21.0 19.4 8.6 45 6.7 NNE 7 13 4 7 1018.7 1016.2 1.4
20/08:30am 20.5 18.7 9.4 49 6.1 N 9 13 5 7 1018.8 1016.3 1.4
20/08:00am 19.5 18.3 10.2 55 5.1 N 7 11 4 6 1018.7 1016.2 1.4
20/07:30am 18.5 17.6 10.6 60 4.4 NW 6 7 3 4 1018.4 1015.9 1.4
20/07:00am 17.0 16.0 11.1 68 3.3 N 7 9 4 5 1018.0 1015.5 1.4
20/06:30am 14.7 15.1 11.1 79 2.0 CALM 0 0 0 0 1017.7 1015.1 1.4
20/06:00am 12.6 12.9 11.0 90 0.9 CALM 0 6 0 3 1017.3 1014.7 1.4
20/05:30am 11.1 11.2 10.2 94 0.5 CALM 0 0 0 0 1016.7 1014.2 1.4
20/05:00am 11.4 11.5 10.3 93 0.6 CALM 0 0 0 0 1016.3 1013.8 1.4
20/04:30am 11.7 11.9 10.4 92 0.7 CALM 0 0 0 0 1016.0 1013.4 1.4
20/04:00am 11.9 12.1 10.6 92 0.7 CALM 0 0 0 0 1015.7 1013.1 1.4
20/03:30am 12.2 12.5 10.8 91 0.7 CALM 0 0 0 0 1015.5 1012.9 1.4
20/03:00am 12.4 11.6 11.0 91 0.8 NNE 6 7 3 4 1015.2 1012.6 1.4
20/02:30am 12.2 11.2 10.9 92 0.7 NE 7 9 4 5 1015.3 1012.7 1.4
20/02:00am 12.2 11.3 10.8 91 0.7 N 6 7 3 4 1015.4 1012.8 1.4
20/01:30am 13.2 12.3 10.7 85 1.3 WSW 6 7 3 4 1015.5 1012.9 1.4
20/01:00am 13.2 12.7 10.9 86 1.2 S 4 9 2 5 1015.4 1012.8 1.4
20/12:30am 13.5 13.0 10.7 83 1.5 SW 4 7 2 4 1015.2 1012.6 1.4
20/12:00am 14.1 13.6 10.7 80 1.8 SSW 4 7 2 4 1015.2 1012.6 1.4
 
Date/Time
WST
Temp
°C
App
Temp
°C
Dew
Point
Rel
Hum
%
Delta-T
°C
Wind Press
QNH
hPa
Press
MSL
hPa
Rain
since 9 am
mm
Dir
 
Spd
km/h
Gust
km/h
Spd
kts
Gust
kts
19/11:30pm 15.7 13.9 9.4 66 3.4 S 9 11 5 6 1015.2 1012.6 1.4
19/11:00pm 15.7 13.4 8.9 64 3.6 WSW 11 13 6 7 1015.4 1012.8 1.4
19/10:30pm 15.6 13.8 9.5 67 3.2 WSW 9 11 5 6 1015.3 1012.7 1.4
19/10:00pm 16.0 14.7 9.9 67 3.3 WSW 7 9 4 5 1015.4 1012.8 1.4
19/09:30pm 16.5 15.3 10.4 67 3.3 W 7 11 4 6 1015.5 1012.9 1.4
19/09:01pm 16.2 15.3 9.4 64 3.6 W 4 6 2 3 1015.1 1012.5 1.4
19/09:00pm 16.3 15.3 9.0 62 3.9 W 4 6 2 3 1015.2 1012.6 1.4
19/08:38pm 16.8 15.6 10.2 65 3.6 W 7 9 4 5 1015.1 1012.5 1.4
19/08:30pm 17.1 15.8 10.0 63 3.9 W 7 9 4 5 1015.1 1012.5 1.4
19/08:00pm 16.2 16.8 11.8 75 2.5 CALM 0 4 0 2 1015.1 1012.5 1.4
19/07:30pm 18.3 16.8 8.3 52 5.3 WNW 6 7 3 4 1014.8 1012.3 1.4
19/07:00pm 20.0 17.3 7.4 44 6.6 WNW 11 15 6 8 1014.6 1012.1 1.4
19/06:30pm 20.9 18.0 6.4 39 7.5 WNW 11 15 6 8 1014.1 1011.5 1.4
19/06:00pm 22.5 17.8 5.0 32 8.9 WNW 19 28 10 15 1013.8 1011.2 1.4
19/05:30pm 23.7 17.8 5.6 31 9.4 NW 26 37 14 20 1013.5 1010.9 1.4
19/05:03pm 24.2 18.2 6.9 33 9.2 WNW 28 46 15 25 1013.0 1010.5 1.4
19/05:00pm 24.3 18.7 7.0 33 9.3 WNW 26 41 14 22 1013.2 1010.6 1.4
19/04:30pm 24.6 20.7 9.3 38 8.5 NW 20 30 11 16 1012.6 1010.0 1.4
19/04:00pm 24.9 19.7 10.4 40 8.3 NW 28 39 15 21 1012.4 1009.8 1.4
19/03:30pm 23.1 20.6 14.1 57 5.4 N 20 30 11 16 1012.0 1009.4 1.4
19/03:00pm 23.5 20.0 13.4 53 6.0 NNW 24 33 13 18 1012.0 1009.4 1.4
19/02:30pm 22.5 20.5 14.9 62 4.6 N 19 32 10 17 1012.0 1009.4 1.4
19/02:00pm 21.1 18.9 14.5 66 4.0 N 19 28 10 15 1012.4 1009.8 1.4
19/01:30pm 20.2 18.1 15.2 73 3.0 N 20 26 11 14 1012.7 1010.1 1.4
19/01:00pm 20.0 17.9 14.8 72 3.1 NNW 19 26 10 14 1013.3 1010.7 1.4
19/12:30pm 18.4 16.0 15.3 82 1.9 N 22 33 12 18 1013.4 1010.8 1.4
19/12:00pm 17.9 16.3 15.9 88 1.2 N 19 32 10 17 1014.6 1012.1 1.4
19/11:30am 18.0 16.8 16.0 88 1.2 NNW 17 30 9 16 1014.1 1011.5 0.8
19/11:00am 18.6 17.4 16.0 85 1.6 NNW 17 22 9 12 1014.6 1012.1 0.6
19/10:30am 18.5 16.5 15.6 83 1.8 N 20 30 11 16 1014.2 1011.6 0.6
19/10:00am 18.6 18.1 16.9 90 1.0 N 15 20 8 11 1014.8 1012.3 0.6
19/09:30am 18.6 17.8 16.0 85 1.6 N 15 20 8 11 1014.3 1011.7 0.0
19/09:03am 17.9 16.3 16.1 89 1.1 N 19 26 10 14 1014.5 1011.9 0.0
19/09:00am 17.8 16.1 15.8 88 1.2 N 19 26 10 14 1014.7 1012.2 22.8
19/08:47am 17.5 15.6 15.1 86 1.4 N 19 30 10 16 1015.2 1012.6 21.8
19/08:30am 17.9 16.8 16.4 91 0.9 NNE 17 22 9 12 1014.5 1011.9 19.2
19/08:00am 17.1 15.3 15.6 91 0.9 NNE 19 22 10 12 1014.4 1011.8 19.2
19/07:57am 17.1 15.1 15.4 90 1.0 NNE 20 22 11 12 1014.4 1011.8 19.2
19/07:43am 16.8 12.7 15.0 89 1.1 NNW 30 48 16 26 1014.6 1012.1 19.2
19/07:38am 17.4 12.3 14.9 85 1.5 NNW 35 44 19 24 1015.3 1012.7 18.4
19/07:30am 18.1 16.9 15.0 82 1.9 N 15 22 8 12 1014.6 1012.1 16.0
19/07:00am 17.4 15.4 15.0 86 1.4 NNW 19 24 10 13 1014.1 1011.5 16.0
19/06:56am 17.4 15.5 15.2 87 1.3 NW 19 22 10 12 1013.9 1011.3 16.0
19/06:38am 17.2 17.1 16.1 93 0.7 N 11 20 6 11 1011.9 1009.3 15.8
19/06:30am 17.4 18.5 16.6 95 0.5 NNW 6 13 3 7 1014.3 1011.7 14.2
19/06:00am 17.1 16.8 16.5 96 0.4 SSW 13 19 7 10 1013.3 1010.7 14.2
19/05:30am 17.1 17.2 16.5 96 0.4 WNW 11 19 6 10 1014.0 1011.4 14.0
19/05:00am 16.9 17.9 16.3 96 0.4 ENE 6 9 3 5 1012.6 1010.0 13.6
19/04:30am 17.0 17.5 16.5 97 0.3 ENE 9 13 5 7 1012.8 1010.2 13.6
19/04:26am 16.9 17.3 16.4 97 0.3 ENE 9 13 5 7 1012.8 1010.2 13.6
19/04:00am 16.8 16.1 16.3 97 0.3 ENE 15 20 8 11 1012.5 1009.9 13.6
19/03:47am 16.8 16.4 16.3 97 0.3 ENE 13 17 7 9 1012.5 1009.9 13.6
19/03:30am 16.9 17.0 16.4 97 0.3 E 11 15 6 8 1012.6 1010.0 13.6
19/03:00am 16.9 17.3 16.3 96 0.4 E 9 13 5 7 1012.3 1009.7 13.6
19/02:30am 17.1 18.1 16.3 95 0.5 W 6 7 3 4 1012.5 1009.9 13.4
19/02:00am 16.9 17.2 16.1 95 0.5 SE 9 11 5 6 1012.0 1009.4 13.4
19/01:30am 17.2 17.6 16.4 95 0.5 SSE 9 13 5 7 1012.3 1009.7 13.4
19/01:00am 17.3 18.2 16.7 96 0.4 S 7 15 4 8 1012.8 1010.2 13.4
19/12:30am 17.3 18.8 16.7 96 0.4 SE 4 9 2 5 1013.9 1011.3 13.0
19/12:00am 17.2 18.3 16.6 96 0.4 SSE 6 9 3 5 1013.9 1011.3 13.0
 
Date/Time
WST
Temp
°C
App
Temp
°C
Dew
Point
Rel
Hum
%
Delta-T
°C
Wind Press
QNH
hPa
Press
MSL
hPa
Rain
since 9 am
mm
Dir
 
Spd
km/h
Gust
km/h
Spd
kts
Gust
kts
18/11:30pm 17.0 17.1 16.4 96 0.4 ESE 11 15 6 8 1013.6 1011.0 13.0
18/11:00pm 17.1 18.0 16.5 96 0.4 ESE 7 11 4 6 1014.3 1011.7 13.0
18/10:40pm 17.2 16.6 16.6 96 0.4 ENE 15 24 8 13 1014.7 1012.2 13.0
18/10:30pm 17.4 16.4 16.6 95 0.5 NE 17 24 9 13 1015.1 1012.5 13.0
18/10:00pm 17.7 16.1 16.4 92 0.8 ENE 20 22 11 12 1014.5 1011.9 13.0
18/09:30pm 17.8 18.7 16.5 92 0.8 NNW 7 11 4 6 1015.9 1013.3 12.8
18/09:00pm 17.7 18.5 16.4 92 0.8 NNW 7 13 4 7 1015.6 1013.0 12.6
18/08:30pm 17.6 18.1 16.5 93 0.7 NW 9 13 5 7 1015.6 1013.0 12.4
18/08:15pm 17.3 18.1 16.3 94 0.6 NW 7 11 4 6 1015.4 1012.8 12.4
18/08:01pm 17.3 16.9 16.2 93 0.7 WNW 13 20 7 11 1015.1 1012.5 12.4
18/08:00pm 17.3 16.9 16.2 93 0.7 WNW 13 20 7 11 1015.1 1012.5 12.4
18/07:30pm 17.3 16.9 16.2 93 0.7 W 13 17 7 9 1015.6 1013.0 10.8
18/07:29pm 17.3 16.9 16.2 93 0.7 W 13 17 7 9 1015.7 1013.1 10.8
18/07:28pm 17.3 16.9 16.2 93 0.7 W 13 17 7 9 1015.7 1013.1 10.8
18/07:11pm 17.4 13.5 15.6 89 1.1 NNW 30 48 16 26 1016.2 1013.7 9.4
18/07:08pm 17.4 13.3 15.9 91 0.9 N 32 48 17 26 1016.6 1014.1 8.6
18/07:00pm 18.4 14.4 16.2 87 1.3 N 32 44 17 24 1016.5 1014.0 6.8
18/06:46pm 19.0 16.0 17.8 93 0.8 NNE 30 44 16 24 1015.6 1013.0 5.6
18/06:41pm 19.5 17.1 18.2 92 0.8 NNE 28 44 15 24 1014.9 1012.4 3.8
18/06:30pm 19.6 21.0 17.7 89 1.2 ESE 7 13 4 7 1013.9 1011.3 3.8
18/06:00pm 20.1 20.5 17.3 84 1.8 SSW 11 15 6 8 1012.7 1010.1 3.8
18/05:30pm 20.1 20.4 17.1 83 1.9 SSW 11 17 6 9 1012.1 1009.5 3.6
18/05:00pm 20.6 21.0 16.4 77 2.6 W 9 17 5 9 1013.6 1011.0 3.4
18/04:30pm 20.0 19.5 16.0 78 2.4 SW 13 15 7 8 1012.8 1010.2 3.2
18/04:00pm 20.4 18.4 15.6 74 2.9 SW 20 28 11 15 1012.1 1009.5 2.8
18/03:52pm 20.6 18.4 16.8 79 2.4 SW 24 32 13 17 1012.0 1009.4 2.8
18/03:34pm 20.3 17.0 16.9 81 2.1 WSW 30 43 16 23 1012.0 1009.4 2.6
18/03:30pm 22.5 19.7 16.3 68 3.8 W 26 39 14 21 1012.0 1009.4 0.2
18/03:00pm 27.4 25.6 13.4 42 8.5 NNW 15 26 8 14 1011.8 1009.2 0.0
18/02:30pm 27.4 23.6 13.7 43 8.3 N 26 35 14 19 1011.9 1009.3 0.0
18/02:00pm 27.8 24.0 13.7 42 8.6 N 26 35 14 19 1012.2 1009.6 0.0
18/01:30pm 27.3 22.9 14.0 44 8.1 N 30 39 16 21 1012.5 1009.9 0.0
18/01:00pm 26.5 24.4 16.1 52 6.5 NNE 22 32 12 17 1012.8 1010.2 0.0
18/12:30pm 26.2 22.1 13.7 46 7.6 N 28 39 15 21 1013.6 1011.0 0.0
18/12:00pm 26.6 22.3 13.3 43 8.0 N 28 43 15 23 1014.0 1011.4 0.0
18/11:30am 26.7 22.8 14.5 47 7.5 N 28 41 15 22 1014.4 1011.8 0.0
18/11:00am 25.8 21.0 14.0 48 7.1 N 32 43 17 23 1014.6 1012.1 0.0
18/10:30am 25.4 21.0 14.2 50 6.8 N 30 41 16 22 1015.1 1012.5 0.0
18/10:00am 24.8 21.0 13.7 50 6.7 N 26 35 14 19 1015.1 1012.5 0.0
18/09:30am 23.9 20.9 14.9 57 5.5 N 24 37 13 20 1015.3 1012.7 0.0
18/09:00am 23.3 19.5 13.5 54 5.8 N 26 39 14 21 1015.1 1012.5 15.0
18/08:30am 22.7 18.8 13.2 55 5.6 N 26 33 14 18 1014.8 1012.3 15.0
18/08:00am 22.3 19.8 13.4 57 5.3 N 19 28 10 15 1014.5 1011.9 15.0
18/07:30am 21.6 18.7 13.0 58 5.0 N 20 26 11 14 1014.6 1012.1 15.0
18/07:00am 21.2 19.0 13.4 61 4.6 N 17 22 9 12 1014.3 1011.7 15.0
18/06:30am 19.9 17.8 13.6 67 3.7 N 17 24 9 13 1014.1 1011.5 15.0
18/06:00am 19.3 16.7 13.2 68 3.5 N 19 30 10 16 1014.0 1011.4 15.0
18/05:30am 19.0 16.3 13.4 70 3.3 N 20 28 11 15 1014.3 1011.7 15.0
18/05:00am 19.2 15.5 13.8 71 3.2 N 26 37 14 20 1014.5 1011.9 15.0
18/04:30am 18.9 15.2 14.0 73 2.9 N 26 39 14 21 1014.5 1011.9 15.0
18/04:13am 19.0 15.0 14.1 73 2.9 N 28 46 15 25 1014.5 1011.9 15.0
18/04:00am 18.9 14.5 14.2 74 2.8 N 30 41 16 22 1014.5 1011.9 15.0
18/03:37am 19.1 13.8 14.1 73 3.0 N 35 54 19 29 1014.3 1011.7 15.0
18/03:30am 18.8 14.0 14.5 76 2.6 N 33 46 18 25 1014.5 1011.9 15.0
18/03:00am 18.2 15.4 15.3 83 1.7 NNE 24 33 13 18 1014.4 1011.8 15.0
18/02:30am 17.4 15.1 15.6 89 1.1 NE 22 30 12 16 1014.7 1012.2 15.0
18/02:00am 17.3 14.2 15.6 90 1.0 NE 26 33 14 18 1015.1 1012.5 15.0

Other Formats:

Comma delimited format used in spreadsheet applications
http://www.bom.gov.au/fwo/IDW60801/IDW60801.99434.axf

JavaScript Object Notation format (JSON) in row-major order
http://www.bom.gov.au/fwo/IDW60801/IDW60801.99434.json